createdAt,value
2023-03-11T00:01:31.240Z,33.40
2023-03-11T00:04:03.556Z,28.90
2023-03-11T00:06:37.868Z,32.50
2023-03-11T00:09:10.482Z,33.10
2023-03-11T00:11:42.953Z,26.10
2023-03-11T00:14:15.438Z,59.30
2023-03-11T00:16:47.876Z,55.60
2023-03-11T00:19:20.428Z,37.50
2023-03-11T00:21:52.812Z,43.80
2023-03-11T00:24:25.101Z,44.20
2023-03-11T00:26:57.499Z,49.70
2023-03-11T00:29:30.173Z,47.00
2023-03-11T00:32:02.665Z,72.20
2023-03-11T00:34:35.303Z,46.50
2023-03-11T00:37:07.677Z,21.80
2023-03-11T00:39:40.028Z,20.60
2023-03-11T00:42:12.468Z,22.80
2023-03-11T00:44:44.897Z,26.70
2023-03-11T00:47:17.289Z,29.20
2023-03-11T00:49:50.257Z,32.00
2023-03-11T00:52:22.520Z,29.80
2023-03-11T00:54:55.040Z,19.30
2023-03-11T00:57:29.377Z,20.50
2023-03-11T01:00:01.955Z,17.90
2023-03-11T01:02:36.118Z,19.40
2023-03-11T01:05:09.578Z,20.10
2023-03-11T01:07:42.007Z,22.10
2023-03-11T01:10:15.928Z,28.30
2023-03-11T01:12:48.228Z,26.60
2023-03-11T01:15:23.387Z,19.40
2023-03-11T01:17:55.672Z,17.40
2023-03-11T01:20:28.200Z,17.40
2023-03-11T01:23:00.703Z,18.90
2023-03-11T01:25:33.926Z,22.00
2023-03-11T01:28:08.411Z,24.20
2023-03-11T01:30:43.167Z,25.70
2023-03-11T01:33:20.346Z,17.60
2023-03-11T01:35:52.778Z,16.50
2023-03-11T01:38:25.245Z,16.80
2023-03-11T01:40:57.636Z,17.30
2023-03-11T01:43:50.557Z,15.60
2023-03-11T01:46:29.278Z,17.20
2023-03-11T01:49:03.994Z,18.10
2023-03-11T01:51:42.572Z,17.20
2023-03-11T01:54:21.030Z,182.20
2023-03-11T01:56:54.456Z,52.50
2023-03-11T01:59:30.207Z,19.10
2023-03-11T02:02:09.713Z,17.40
2023-03-11T02:04:43.654Z,15.00
2023-03-11T02:07:17.120Z,20.60
2023-03-11T02:09:49.985Z,16.40
2023-03-11T02:12:23.104Z,15.20
2023-03-11T02:14:55.789Z,18.30
2023-03-11T02:17:28.296Z,18.40
2023-03-11T02:20:13.797Z,28.50
2023-03-11T02:22:47.292Z,46.00
2023-03-11T02:25:27.732Z,21.40
2023-03-11T02:28:02.314Z,20.60
2023-03-11T02:30:36.968Z,22.40
2023-03-11T02:33:10.134Z,21.30
2023-03-11T02:35:42.750Z,22.20
2023-03-11T02:38:15.391Z,19.60
2023-03-11T02:40:54.011Z,23.10
2023-03-11T02:43:33.598Z,23.20
2023-03-11T02:46:10.155Z,26.80
2023-03-11T02:48:44.439Z,26.90
2023-03-11T02:51:17.397Z,29.60
2023-03-11T02:53:52.834Z,25.00
2023-03-11T02:56:25.852Z,29.30
2023-03-11T02:58:58.356Z,30.40
2023-03-11T03:01:31.171Z,28.00
2023-03-11T03:04:04.261Z,27.60
2023-03-11T03:06:37.820Z,28.80
2023-03-11T03:09:10.162Z,32.40
2023-03-11T03:11:42.512Z,28.30
2023-03-11T03:14:15.120Z,24.20
2023-03-11T03:16:47.705Z,24.20
2023-03-11T03:19:20.300Z,24.40
2023-03-11T03:21:52.648Z,23.90
2023-03-11T03:24:26.868Z,23.90
2023-03-11T03:26:59.242Z,22.90
2023-03-11T03:29:32.109Z,22.70
2023-03-11T03:32:05.090Z,23.30
2023-03-11T03:34:38.441Z,21.90
2023-03-11T03:37:10.759Z,21.00
2023-03-11T03:39:43.284Z,20.30
2023-03-11T03:42:16.606Z,19.50
2023-03-11T03:44:49.721Z,18.70
2023-03-11T03:47:22.352Z,18.50
2023-03-11T03:49:54.877Z,18.10
2023-03-11T03:52:27.252Z,16.60
2023-03-11T03:54:59.712Z,17.50
2023-03-11T03:57:32.975Z,15.00
2023-03-11T04:00:10.216Z,16.40
2023-03-11T04:02:50.415Z,15.80
2023-03-11T04:05:30.470Z,12.70
2023-03-11T04:08:02.796Z,12.40
2023-03-11T04:10:35.117Z,12.80
2023-03-11T04:13:08.163Z,12.20
2023-03-11T04:15:41.758Z,13.10
2023-03-11T04:18:14.167Z,12.80
2023-03-11T04:20:46.656Z,13.80
2023-03-11T04:23:20.518Z,13.70
2023-03-11T04:25:52.782Z,22.90
2023-03-11T04:28:25.336Z,14.40
2023-03-11T04:30:58.237Z,17.30
2023-03-11T04:33:30.849Z,20.10
2023-03-11T04:36:08.974Z,15.20
2023-03-11T04:38:42.234Z,12.90
2023-03-11T04:41:15.439Z,13.40
2023-03-11T04:43:48.091Z,12.60
2023-03-11T04:46:20.563Z,13.00
2023-03-11T04:48:53.783Z,15.00
2023-03-11T04:51:26.488Z,11.90
2023-03-11T04:53:58.938Z,9.30
2023-03-11T04:56:32.677Z,10.40
2023-03-11T04:59:05.226Z,10.40
2023-03-11T05:01:38.247Z,11.60
2023-03-11T05:04:12.916Z,9.80
2023-03-11T05:06:45.900Z,10.70
2023-03-11T05:09:18.502Z,10.40
2023-03-11T05:11:50.907Z,8.10
2023-03-11T05:14:23.789Z,19.40
2023-03-11T05:16:56.926Z,18.60
2023-03-11T05:19:32.344Z,36.40
2023-03-11T05:22:07.404Z,24.10
2023-03-11T05:24:40.038Z,11.10
2023-03-11T05:27:12.852Z,6.60
2023-03-11T05:29:45.990Z,4.90
2023-03-11T05:32:19.384Z,5.10
2023-03-11T05:34:53.428Z,5.00
2023-03-11T05:37:26.290Z,6.30
2023-03-11T05:40:00.475Z,5.20
2023-03-11T05:42:32.903Z,5.70
2023-03-11T05:45:05.549Z,4.40
2023-03-11T05:47:38.492Z,5.50
2023-03-11T05:50:15.499Z,8.40
2023-03-11T05:52:48.766Z,27.50
2023-03-11T05:55:21.668Z,16.50
2023-03-11T05:57:55.279Z,14.80
2023-03-11T06:00:29.597Z,19.20
2023-03-11T06:03:04.016Z,15.10
2023-03-11T06:05:36.412Z,11.70
2023-03-11T06:08:08.840Z,9.90
2023-03-11T06:10:41.176Z,6.70
2023-03-11T06:13:13.572Z,10.50
2023-03-11T06:15:53.419Z,11.80
2023-03-11T06:18:27.067Z,11.90
2023-03-11T06:21:01.660Z,13.90
2023-03-11T06:23:34.048Z,11.90
2023-03-11T06:26:08.052Z,9.60
2023-03-11T06:28:45.024Z,13.10
2023-03-11T06:31:20.723Z,12.40
2023-03-11T06:33:53.310Z,12.30
2023-03-11T06:36:26.335Z,11.60
2023-03-11T06:38:58.864Z,14.00
2023-03-11T06:41:34.053Z,32.70
2023-03-11T06:44:07.022Z,17.10
2023-03-11T06:46:41.168Z,13.90
2023-03-11T06:49:13.505Z,8.50
2023-03-11T06:51:46.238Z,10.70
2023-03-11T06:54:19.190Z,10.10
2023-03-11T06:56:51.589Z,7.90
2023-03-11T06:59:24.319Z,7.00
2023-03-11T07:01:57.862Z,6.90
2023-03-11T07:04:30.404Z,6.60
2023-03-11T07:07:02.854Z,11.70
2023-03-11T07:09:35.318Z,13.50
2023-03-11T07:12:11.144Z,7.00
2023-03-11T07:14:44.091Z,8.30
2023-03-11T07:17:16.396Z,27.80
2023-03-11T07:19:52.623Z,12.90
2023-03-11T07:22:24.945Z,4.50
2023-03-11T07:24:57.198Z,6.50
2023-03-11T07:27:30.686Z,7.60
2023-03-11T07:30:03.734Z,8.30
2023-03-11T07:32:36.043Z,12.00
2023-03-11T07:35:10.801Z,16.30
2023-03-11T07:37:43.180Z,8.30
2023-03-11T07:40:17.278Z,8.60
2023-03-11T07:42:49.633Z,15.80
2023-03-11T07:45:24.167Z,32.60
2023-03-11T07:47:56.486Z,25.40
2023-03-11T07:50:28.904Z,21.90
2023-03-11T07:53:01.248Z,11.00
2023-03-11T07:55:34.540Z,12.50
2023-03-11T07:58:07.180Z,9.70
2023-03-11T08:00:39.441Z,10.00
2023-03-11T08:03:11.826Z,14.90
2023-03-11T08:05:44.252Z,15.00
2023-03-11T08:08:16.607Z,15.80
2023-03-11T08:10:49.039Z,16.40
2023-03-11T08:13:21.382Z,9.90
2023-03-11T08:15:53.684Z,8.30
2023-03-11T08:18:26.120Z,8.70
2023-03-11T08:20:58.533Z,9.20
2023-03-11T08:23:31.092Z,14.70
2023-03-11T08:26:06.216Z,17.30
2023-03-11T08:28:38.976Z,26.60
2023-03-11T08:31:16.850Z,15.60
2023-03-11T08:33:51.082Z,17.00
2023-03-11T08:36:23.781Z,11.20
2023-03-11T08:38:56.107Z,11.20
2023-03-11T08:41:29.326Z,8.80
2023-03-11T08:44:01.938Z,12.00
2023-03-11T08:46:36.974Z,15.40
2023-03-11T08:49:10.006Z,20.00
2023-03-11T08:51:42.739Z,20.60
2023-03-11T08:54:14.987Z,19.10
2023-03-11T08:56:48.094Z,14.90
2023-03-11T08:59:20.362Z,14.40
2023-03-11T09:01:52.714Z,18.90
2023-03-11T09:04:25.041Z,16.00
2023-03-11T09:06:57.239Z,24.30
2023-03-11T09:09:29.522Z,17.30
2023-03-11T09:12:01.772Z,7.60
2023-03-11T09:14:34.067Z,9.80
2023-03-11T09:17:06.420Z,12.50
2023-03-11T09:19:39.257Z,8.10
2023-03-11T09:22:11.623Z,9.90
2023-03-11T09:24:43.886Z,9.40
2023-03-11T09:27:16.362Z,9.20
2023-03-11T09:29:48.684Z,9.20
2023-03-11T09:32:21.377Z,9.40
2023-03-11T09:34:53.869Z,13.30
2023-03-11T09:37:27.083Z,16.00
2023-03-11T09:39:59.424Z,16.20
2023-03-11T09:42:38.989Z,14.60
2023-03-11T09:45:19.477Z,10.10
2023-03-11T09:48:06.043Z,8.00
2023-03-11T09:50:44.060Z,11.50
2023-03-11T09:53:24.001Z,10.30
2023-03-11T09:55:58.640Z,12.00
2023-03-11T09:58:39.995Z,10.60
2023-03-11T10:01:19.285Z,8.70
2023-03-11T10:03:54.623Z,9.60
2023-03-11T10:06:30.607Z,6.80
2023-03-11T10:09:08.672Z,9.20
2023-03-11T10:11:57.501Z,7.60
2023-03-11T10:14:51.679Z,9.30
2023-03-11T10:17:44.107Z,8.50
2023-03-11T10:20:26.189Z,8.30
2023-03-11T10:23:10.344Z,6.80
2023-03-11T10:25:53.730Z,8.10
2023-03-11T10:28:33.725Z,17.30
2023-03-11T10:31:19.086Z,39.20
2023-03-11T10:36:28.464Z,8.90
2023-03-11T10:39:02.095Z,10.50
2023-03-11T10:41:42.892Z,9.50
2023-03-11T10:44:20.498Z,6.10
2023-03-11T10:46:52.759Z,7.90
2023-03-11T10:49:25.054Z,13.50
2023-03-11T10:51:58.512Z,17.10
2023-03-11T10:54:33.726Z,7.20
2023-03-11T10:59:49.805Z,11.60
2023-03-11T11:02:27.185Z,13.00
2023-03-11T11:05:28.323Z,19.90
2023-03-11T11:08:09.710Z,21.00
2023-03-11T11:10:52.741Z,11.90
2023-03-11T11:13:26.916Z,17.00
2023-03-11T11:16:01.699Z,12.30
2023-03-11T11:18:38.032Z,7.80
2023-03-11T11:21:15.122Z,8.10
2023-03-11T11:23:53.024Z,8.40
2023-03-11T11:26:27.517Z,10.20
2023-03-11T11:29:15.190Z,13.10
2023-03-11T11:31:48.559Z,14.70
2023-03-11T11:34:32.101Z,10.20
2023-03-11T11:37:07.065Z,7.00
2023-03-11T11:39:52.105Z,7.10
2023-03-11T11:42:27.684Z,7.10
2023-03-11T11:45:04.579Z,9.20
2023-03-11T11:47:43.294Z,7.40
2023-03-11T11:50:24.909Z,6.40
2023-03-11T11:53:05.932Z,6.20
2023-03-11T11:55:41.229Z,8.10
2023-03-11T12:00:56.240Z,16.30
2023-03-11T12:03:54.937Z,7.60
2023-03-11T12:06:37.097Z,16.00
2023-03-11T12:09:24.345Z,21.70
2023-03-11T12:12:06.353Z,23.70
2023-03-11T12:14:46.649Z,14.90
2023-03-11T12:17:23.625Z,11.10
2023-03-11T12:20:01.309Z,10.60
2023-03-11T12:23:02.690Z,11.30
2023-03-11T12:25:41.566Z,8.60
2023-03-11T12:28:24.965Z,6.10
2023-03-11T12:31:00.723Z,9.30
2023-03-11T12:33:38.228Z,22.60
2023-03-11T12:36:25.712Z,9.10
2023-03-11T12:38:58.495Z,9.90
2023-03-11T12:41:37.038Z,19.40
2023-03-11T12:44:28.888Z,38.00
2023-03-11T12:47:18.490Z,35.00
2023-03-11T12:49:54.973Z,16.40
2023-03-11T12:52:34.428Z,7.80
2023-03-11T12:55:35.240Z,24.60
2023-03-11T12:58:34.252Z,37.80
2023-03-11T13:01:37.098Z,31.50
2023-03-11T13:04:27.019Z,19.00
2023-03-11T13:07:47.680Z,27.50
2023-03-11T13:10:37.455Z,12.80
2023-03-11T13:13:42.720Z,23.40
2023-03-11T13:16:39.785Z,19.20
2023-03-11T13:19:37.050Z,8.60
2023-03-11T13:23:04.863Z,12.90
2023-03-11T13:25:42.056Z,12.90
2023-03-11T13:28:38.910Z,21.70
2023-03-11T13:31:23.889Z,14.00
2023-03-11T13:33:59.160Z,10.10
2023-03-11T13:36:45.891Z,12.20
2023-03-11T13:39:45.589Z,9.80
2023-03-11T13:42:23.623Z,14.50
2023-03-11T13:44:56.306Z,14.10
2023-03-11T13:47:30.187Z,17.00
2023-03-11T13:50:10.296Z,15.70
2023-03-11T13:52:49.126Z,21.20
2023-03-11T13:55:25.156Z,7.10
2023-03-11T13:57:58.662Z,11.20
2023-03-11T14:00:34.075Z,8.90
2023-03-11T14:03:12.910Z,11.30
2023-03-11T14:05:49.386Z,7.20
2023-03-11T14:08:27.041Z,9.20
2023-03-11T14:11:00.448Z,7.70
2023-03-11T14:13:33.870Z,5.80
2023-03-11T14:16:09.993Z,5.10
2023-03-11T14:18:43.643Z,6.20
2023-03-11T14:21:18.281Z,4.40
2023-03-11T14:23:53.389Z,3.40
2023-03-11T14:26:29.212Z,3.70
2023-03-11T14:29:03.828Z,4.20
2023-03-11T14:31:38.111Z,5.00
2023-03-11T14:34:18.370Z,3.40
2023-03-11T14:36:54.419Z,13.80
2023-03-11T14:39:32.492Z,14.30
2023-03-11T14:42:18.912Z,16.50
2023-03-11T14:44:58.031Z,6.50
2023-03-11T14:47:37.807Z,4.70
2023-03-11T14:50:17.572Z,3.60
2023-03-11T14:52:52.967Z,3.20
2023-03-11T14:55:28.364Z,4.20
2023-03-11T14:58:04.776Z,4.70
2023-03-11T15:00:41.693Z,4.30
2023-03-11T15:03:23.666Z,3.90
2023-03-11T15:05:59.197Z,3.30
2023-03-11T15:08:35.979Z,5.40
2023-03-11T15:11:24.469Z,5.60
2023-03-11T15:14:17.419Z,4.30
2023-03-11T15:16:49.972Z,12.00
2023-03-11T15:19:32.251Z,4.40
2023-03-11T15:22:22.625Z,6.60
2023-03-11T15:24:57.189Z,6.80
2023-03-11T15:27:35.486Z,5.40
2023-03-11T15:30:23.297Z,3.80
2023-03-11T15:32:56.364Z,7.80
2023-03-11T15:35:29.939Z,4.60
2023-03-11T15:38:25.659Z,4.50
2023-03-11T15:41:01.446Z,4.10
2023-03-11T15:43:35.955Z,4.50
2023-03-11T15:46:11.801Z,2.80
2023-03-11T15:48:44.990Z,7.60
2023-03-11T15:51:22.229Z,3.50
2023-03-11T15:53:54.588Z,4.40
2023-03-11T15:56:27.350Z,10.30
2023-03-11T15:58:59.798Z,5.70
2023-03-11T16:01:32.570Z,6.20
2023-03-11T16:04:04.889Z,8.60
2023-03-11T16:06:37.452Z,6.00
2023-03-11T16:09:09.980Z,5.40
2023-03-11T16:11:44.015Z,4.20
2023-03-11T16:14:20.078Z,11.10
2023-03-11T16:16:52.426Z,5.00
2023-03-11T16:19:24.961Z,8.10
2023-03-11T16:21:57.278Z,7.00
2023-03-11T16:24:29.843Z,6.80
2023-03-11T16:27:02.353Z,5.40
2023-03-11T16:29:34.870Z,4.80
2023-03-11T16:32:08.734Z,5.00
2023-03-11T16:34:41.202Z,4.50
2023-03-11T16:37:20.715Z,3.70
2023-03-11T16:39:53.834Z,3.60
2023-03-11T16:42:26.399Z,3.50
2023-03-11T16:44:58.767Z,3.10
2023-03-11T16:47:31.146Z,3.70
2023-03-11T16:50:04.210Z,3.90
2023-03-11T16:52:36.848Z,2.90
2023-03-11T16:55:12.325Z,3.40
2023-03-11T16:57:45.183Z,3.60
2023-03-11T17:00:19.102Z,2.90
2023-03-11T17:02:51.484Z,3.20
2023-03-11T17:05:23.807Z,2.70
2023-03-11T17:08:01.146Z,2.40
2023-03-11T17:10:39.358Z,3.20
2023-03-11T17:13:12.865Z,3.00
2023-03-11T17:15:45.899Z,3.00
2023-03-11T17:18:18.215Z,3.80
2023-03-11T17:20:50.586Z,4.20
2023-03-11T17:23:23.408Z,4.10
2023-03-11T17:25:55.838Z,3.70
2023-03-11T17:28:28.646Z,4.10
2023-03-11T17:31:01.176Z,6.60
2023-03-11T17:33:33.459Z,5.50
2023-03-11T17:36:09.747Z,5.30
2023-03-11T17:38:42.293Z,6.50
2023-03-11T17:41:17.000Z,4.80
2023-03-11T17:43:51.547Z,5.00
2023-03-11T17:46:24.273Z,5.70
2023-03-11T17:48:56.710Z,9.20
2023-03-11T17:51:29.177Z,13.00
2023-03-11T17:54:01.892Z,13.50
2023-03-11T17:56:34.275Z,10.00
2023-03-11T17:59:06.624Z,7.40
2023-03-11T18:01:39.337Z,5.00
2023-03-11T18:04:11.706Z,5.80
2023-03-11T18:06:44.436Z,4.30
2023-03-11T18:09:17.228Z,6.50
2023-03-11T18:11:49.581Z,5.60
2023-03-11T18:14:21.817Z,5.00
2023-03-11T18:16:54.201Z,6.80
2023-03-11T18:19:26.586Z,5.40
2023-03-11T18:21:59.013Z,6.00
2023-03-11T18:24:31.379Z,5.10
2023-03-11T18:27:03.698Z,5.00
2023-03-11T18:29:36.081Z,5.30
2023-03-11T18:32:08.929Z,4.80
2023-03-11T18:34:41.778Z,4.80
2023-03-11T18:37:14.089Z,4.80
2023-03-11T18:39:46.955Z,7.00
2023-03-11T18:42:19.238Z,9.60
2023-03-11T18:44:51.671Z,12.70
2023-03-11T18:47:24.084Z,20.90
2023-03-11T18:49:57.134Z,29.70
2023-03-11T18:52:29.523Z,10.40
2023-03-11T18:55:01.913Z,17.20
2023-03-11T18:57:34.245Z,11.60
2023-03-11T19:00:07.900Z,5.80
2023-03-11T19:02:40.189Z,8.70
2023-03-11T19:05:12.731Z,8.40
2023-03-11T19:07:45.054Z,9.20
2023-03-11T19:10:20.103Z,9.70
2023-03-11T19:12:52.529Z,8.50
2023-03-11T19:15:24.948Z,7.30
2023-03-11T19:18:06.219Z,9.40
2023-03-11T19:20:39.771Z,8.30
2023-03-11T19:23:12.410Z,6.20
2023-03-11T19:26:00.692Z,8.40
2023-03-11T19:28:35.120Z,8.00
2023-03-11T19:31:07.895Z,5.70
2023-03-11T19:33:40.430Z,10.00
2023-03-11T19:36:14.086Z,6.50
2023-03-11T19:38:46.381Z,7.50
2023-03-11T19:41:20.584Z,4.80
2023-03-11T19:43:53.153Z,5.50
2023-03-11T19:46:25.581Z,5.30
2023-03-11T19:48:58.971Z,20.20
2023-03-11T19:51:46.430Z,14.60
2023-03-11T19:54:21.773Z,8.00
2023-03-11T19:56:54.148Z,6.90
2023-03-11T19:59:26.474Z,5.50
2023-03-11T20:01:58.925Z,5.30
2023-03-11T20:04:31.456Z,4.90
2023-03-11T20:07:03.997Z,6.20
2023-03-11T20:09:36.628Z,6.00
2023-03-11T20:12:09.740Z,6.60
2023-03-11T20:14:43.337Z,5.30
2023-03-11T20:17:16.014Z,6.10
2023-03-11T20:19:48.265Z,5.40
2023-03-11T20:22:20.840Z,5.00
2023-03-11T20:24:53.536Z,5.10
2023-03-11T20:27:25.871Z,4.80
2023-03-11T20:29:58.293Z,5.40
2023-03-11T20:32:31.139Z,5.20
2023-03-11T20:35:04.272Z,5.70
2023-03-11T20:37:36.673Z,6.80
2023-03-11T20:40:13.169Z,5.70
2023-03-11T20:42:47.260Z,5.60
2023-03-11T20:45:22.059Z,6.70
2023-03-11T20:47:55.855Z,85.80
2023-03-11T20:50:28.253Z,123.50
2023-03-11T20:53:00.666Z,132.40
2023-03-11T20:55:33.249Z,37.10
2023-03-11T20:58:06.190Z,34.80
2023-03-11T21:00:38.839Z,29.00
2023-03-11T21:03:11.418Z,18.80
2023-03-11T21:05:45.689Z,15.00
2023-03-11T21:08:18.350Z,26.10
2023-03-11T21:10:50.931Z,28.30
2023-03-11T21:13:23.745Z,21.00
2023-03-11T21:15:57.674Z,17.80
2023-03-11T21:18:30.277Z,12.70
2023-03-11T21:21:04.016Z,13.50
2023-03-11T21:23:36.984Z,9.10
2023-03-11T21:26:09.978Z,7.00
2023-03-11T21:28:46.777Z,8.60
2023-03-11T21:31:21.342Z,6.20
2023-03-11T21:33:55.465Z,5.90
2023-03-11T21:36:28.325Z,6.40
2023-03-11T21:39:03.409Z,9.20
2023-03-11T21:41:36.355Z,5.40
2023-03-11T21:44:09.001Z,6.10
2023-03-11T21:46:41.570Z,5.70
2023-03-11T21:49:14.103Z,10.20
2023-03-11T21:51:46.448Z,6.80
2023-03-11T21:54:18.913Z,8.40
2023-03-11T21:56:51.457Z,7.00
2023-03-11T21:59:25.584Z,7.00
2023-03-11T22:02:01.432Z,7.20
2023-03-11T22:04:34.279Z,9.70
2023-03-11T22:07:06.859Z,5.90
2023-03-11T22:09:39.259Z,8.30
2023-03-11T22:12:11.706Z,8.10
2023-03-11T22:14:44.038Z,24.60
2023-03-11T22:17:16.608Z,12.10
2023-03-11T22:19:49.414Z,17.00
2023-03-11T22:22:21.876Z,12.00
2023-03-11T22:24:54.089Z,5.60
2023-03-11T22:27:26.423Z,5.30
2023-03-11T22:29:58.688Z,5.20
2023-03-11T22:32:31.000Z,5.40
2023-03-11T22:35:03.533Z,5.40
2023-03-11T22:37:35.876Z,5.10
2023-03-11T22:40:11.358Z,5.30
2023-03-11T22:42:43.734Z,5.50
2023-03-11T22:45:16.144Z,5.60
2023-03-11T22:47:48.446Z,5.20
2023-03-11T22:50:21.899Z,5.50
2023-03-11T22:52:54.275Z,5.10
2023-03-11T22:55:26.884Z,5.70
2023-03-11T22:57:59.267Z,6.60
2023-03-11T23:00:31.667Z,5.20
2023-03-11T23:03:04.410Z,5.90
2023-03-11T23:05:42.064Z,6.00
2023-03-11T23:08:16.668Z,5.60
2023-03-11T23:10:49.669Z,5.50
2023-03-11T23:13:22.177Z,5.60
2023-03-11T23:15:54.508Z,5.60
2023-03-11T23:18:27.481Z,6.20
2023-03-11T23:21:00.007Z,6.10
2023-03-11T23:23:32.535Z,5.80
2023-03-11T23:26:10.273Z,11.00
2023-03-11T23:28:44.384Z,12.00
2023-03-11T23:31:18.972Z,29.10
2023-03-11T23:33:51.501Z,20.40
2023-03-11T23:36:27.636Z,26.70
2023-03-11T23:39:00.353Z,12.10
2023-03-11T23:41:32.711Z,15.60
2023-03-11T23:44:05.416Z,14.50
2023-03-11T23:46:37.804Z,12.80
2023-03-11T23:49:10.167Z,26.60
2023-03-11T23:51:42.616Z,17.00
2023-03-11T23:54:14.893Z,19.00
2023-03-11T23:56:47.415Z,20.60
2023-03-11T23:59:19.732Z,56.30
